Time;durP1;ratioP1;P1;durP2;ratioP2;P2;SDS_P1;SDS_P2;PMS_P1;PMS_P2;Temp;Humidity;BMP_temperature;BMP_pressure;BME280_temperature;BME280_humidity;BME280_pressure;Samples;Min_cycle;Max_cycle;Signal;HPM_P1;HPM_P2
2021/04/05 00:00:22;;;;;;;19.43;8.73;;;;;;;3.87;71.23;99760.02;3518282;82;34381;-83
2021/04/05 00:05:35;;;;;;;22.10;9.60;;;;;;;3.92;71.28;99757.82;3556844;80;98007;-84
2021/04/05 00:10:47;;;;;;;28.93;11.67;;;;;;;3.90;71.39;99751.95;3521050;82;33472;-84
2021/04/05 00:15:48;;;;;;;22.32;9.18;;;;;;;3.82;71.54;99743.94;3520550;81;98205;-83
2021/04/05 00:26:19;;;;;;;19.97;8.27;;;;;;;3.63;72.03;99723.39;3526599;81;97808;-81
2021/04/05 00:31:20;;;;;;;18.30;8.30;;;;;;;3.62;72.43;99716.38;3506564;82;33075;-83
2021/04/05 00:36:21;;;;;;;21.43;8.33;;;;;;;3.67;72.54;99707.38;3544509;81;97842;-84
2021/04/05 00:41:22;;;;;;;21.47;7.80;;;;;;;3.70;72.74;99701.25;3580872;81;33099;-84
2021/04/05 00:46:25;;;;;;;21.33;8.13;;;;;;;3.66;72.81;99683.26;3573887;80;98190;-84
2021/04/05 00:51:27;;;;;;;17.40;6.77;;;;;;;3.57;73.09;99671.73;3581649;81;33490;-82
2021/04/05 00:56:29;;;;;;;18.07;7.03;;;;;;;3.49;73.39;99659.88;3570317;81;98116;-83
2021/04/05 01:01:29;;;;;;;15.83;7.07;;;;;;;3.49;73.90;99651.72;3576128;81;33020;-83
2021/04/05 01:06:34;;;;;;;18.17;8.17;;;;;;;3.56;73.76;99629.36;3561197;81;98077;-82
2021/04/05 01:11:35;;;;;;;17.80;8.00;;;;;;;3.63;73.86;99607.20;3581648;80;35146;-85
2021/04/05 01:16:36;;;;;;;17.90;8.20;;;;;;;3.62;74.09;99598.83;3570563;80;98094;-83
2021/04/05 01:21:38;;;;;;;21.23;7.30;;;;;;;3.53;74.27;99579.16;3580558;81;33507;-84
2021/04/05 01:26:39;;;;;;;27.87;8.50;;;;;;;3.43;74.77;99554.39;3538804;81;98129;-83
2021/04/05 01:31:40;;;;;;;21.20;7.40;;;;;;;3.33;74.82;99555.72;3571535;81;33487;-83
2021/04/05 01:36:41;;;;;;;18.95;8.03;;;;;;;3.34;75.00;99550.49;3565611;81;98197;-83
2021/04/05 01:41:42;;;;;;;17.00;8.07;;;;;;;3.36;74.92;99534.63;3568597;81;33079;-82
2021/04/05 01:46:43;;;;;;;23.37;9.20;;;;;;;3.33;75.37;99533.96;3561491;81;97862;-82
2021/04/05 01:51:44;;;;;;;24.53;7.97;;;;;;;3.23;75.52;99525.55;3564418;81;33433;-81
2021/04/05 01:56:45;;;;;;;21.37;7.87;;;;;;;3.10;75.66;99517.23;3566389;79;98257;-83
2021/04/05 02:01:46;;;;;;;23.17;9.17;;;;;;;3.04;76.50;99492.81;3567154;81;32570;-84
2021/04/05 02:06:47;;;;;;;21.07;8.70;;;;;;;3.07;76.64;99473.88;3560109;81;97866;-84
2021/04/05 02:11:48;;;;;;;19.03;8.33;;;;;;;3.07;76.86;99458.16;3567941;81;31241;-81
2021/04/05 02:16:49;;;;;;;18.70;7.53;;;;;;;3.02;77.25;99456.50;3566896;81;98202;-82
2021/04/05 02:21:51;;;;;;;18.63;8.20;;;;;;;2.92;77.87;99454.30;3574088;81;31830;-84
2021/04/05 02:26:52;;;;;;;16.35;7.60;;;;;;;2.86;78.13;99445.38;3508060;81;98233;-82
2021/04/05 02:31:53;;;;;;;21.17;7.97;;;;;;;2.86;78.19;99436.67;3497858;82;31819;-83
2021/04/05 02:36:54;;;;;;;19.30;8.60;;;;;;;2.87;78.34;99408.36;3507247;82;98233;-83
2021/04/05 02:41:55;;;;;;;23.43;9.30;;;;;;;2.85;78.18;99397.03;3517186;82;32282;-82
2021/04/05 02:46:56;;;;;;;20.43;7.83;;;;;;;2.77;79.11;99379.55;3501170;82;98238;-83
2021/04/05 02:51:58;;;;;;;20.87;7.93;;;;;;;2.74;79.04;99359.30;3516377;82;31780;-84
2021/04/05 02:56:59;;;;;;;20.00;9.00;;;;;;;2.79;78.74;99354.97;3501803;82;98152;-84
2021/04/05 03:02:00;;;;;;;21.57;8.97;;;;;;;2.86;79.13;99347.01;3507465;82;30323;-85
2021/04/05 03:07:01;;;;;;;22.33;9.57;;;;;;;2.88;78.95;99333.05;3501585;82;97824;-83
2021/04/05 03:12:03;;;;;;;20.47;8.87;;;;;;;2.86;79.01;99313.61;3517635;81;31890;-84
2021/04/05 03:17:08;;;;;;;22.03;9.40;;;;;;;2.81;79.11;99308.44;3501847;82;97924;-83
2021/04/05 03:22:10;;;;;;;16.47;7.93;;;;;;;2.82;79.22;99284.20;3521463;82;25835;-83
2021/04/05 03:27:10;;;;;;;23.17;9.47;;;;;;;2.88;79.42;99270.00;3559140;79;98234;-83
2021/04/05 03:32:17;;;;;;;22.00;10.47;;;;;;;2.99;79.43;99263.44;3564794;81;31707;-83
2021/04/05 03:37:21;;;;;;;20.17;9.00;;;;;;;3.01;79.46;99250.30;3551706;81;98046;-81
2021/04/05 03:42:27;;;;;;;19.23;8.63;;;;;;;2.95;79.53;99225.91;3554602;81;98206;-85
2021/04/05 03:47:53;;;;;;;21.45;8.65;;;;;;;2.88;79.31;99208.87;3562175;81;26478;-83
2021/04/05 03:53:19;;;;;;;20.83;8.73;;;;;;;2.94;79.71;99188.98;3553000;80;98109;-84
2021/04/05 03:58:22;;;;;;;21.47;9.77;;;;;;;3.04;79.75;99166.68;3557844;81;31807;-80
2021/04/05 04:03:34;;;;;;;19.57;9.38;;;;;;;3.11;79.43;99162.17;3552992;81;98427;-83
2021/04/05 04:08:43;;;;;;;21.93;10.32;;;;;;;3.09;79.73;99150.09;3556530;80;26127;-84
2021/04/05 04:13:45;;;;;;;21.50;8.87;;;;;;;3.05;79.99;99145.95;3550360;81;98588;-83
2021/04/05 04:18:46;;;;;;;18.30;9.40;;;;;;;3.02;80.21;99145.31;3540004;81;31707;-86
2021/04/05 04:23:48;;;;;;;22.97;10.03;;;;;;;3.08;79.86;99143.88;3557549;80;98561;-83
2021/04/05 04:28:48;;;;;;;24.43;11.20;;;;;;;3.17;80.15;99126.00;3584560;81;32231;-84
2021/04/05 04:33:49;;;;;;;20.70;9.30;;;;;;;3.20;79.89;99117.91;3576323;80;98239;-85
2021/04/05 04:38:54;;;;;;;27.13;11.00;;;;;;;3.19;79.63;99129.93;3577843;81;31700;-81
2021/04/05 04:44:01;;;;;;;24.70;10.13;;;;;;;3.16;80.48;99110.84;3568840;80;98369;-83
2021/04/05 04:49:07;;;;;;;20.03;10.10;;;;;;;3.18;80.09;99097.07;3576920;80;32827;-82
2021/04/05 04:54:10;;;;;;;24.50;10.35;;;;;;;3.28;79.95;99094.36;3568454;80;98396;-82
2021/04/05 04:59:12;;;;;;;18.50;9.77;;;;;;;3.34;80.05;99107.28;3575827;81;26176;-84
2021/04/05 05:04:28;;;;;;;21.50;10.40;;;;;;;3.36;79.96;99079.17;3569402;80;98102;-82
2021/04/05 05:09:30;;;;;;;26.93;11.83;;;;;;;3.34;80.00;99065.72;3576999;81;25980;-83
2021/04/05 05:14:31;;;;;;;24.35;9.55;;;;;;;3.37;79.83;99052.75;3577164;81;98191;-83
2021/04/05 05:19:36;;;;;;;19.67;9.90;;;;;;;3.46;79.59;99027.47;3584810;81;31797;-83
2021/04/05 05:24:38;;;;;;;20.83;9.80;;;;;;;3.61;79.21;99032.77;3568838;80;97974;-84
2021/04/05 05:29:40;;;;;;;22.43;10.93;;;;;;;3.67;78.92;99023.14;3573927;81;31963;-83
2021/04/05 05:34:41;;;;;;;26.10;10.37;;;;;;;3.68;78.69;99008.42;3563520;81;98109;-82
2021/04/05 05:39:42;;;;;;;17.73;9.53;;;;;;;3.67;78.60;98987.78;3584198;80;31689;-83
2021/04/05 05:45:05;;;;;;;22.17;9.90;;;;;;;3.67;78.61;98978.26;3565787;81;98672;-83
2021/04/05 05:50:20;;;;;;;21.57;9.87;;;;;;;3.80;78.48;99000.61;3575911;81;31806;-83
2021/04/05 05:55:49;;;;;;;23.60;10.18;;;;;;;3.98;78.17;98977.17;3547072;80;98496;-83
2021/04/05 06:01:41;;;;;;;21.40;9.10;;;;;;;4.08;77.69;98963.69;3585336;81;32215;-84
2021/04/05 06:07:31;;;;;;;17.40;8.67;;;;;;;4.15;77.26;98958.92;3565839;81;98428;-84
2021/04/05 06:12:46;;;;;;;25.57;9.57;;;;;;;4.23;77.29;98953.20;3566949;79;98419;-82
2021/04/05 06:18:16;;;;;;;23.43;8.40;;;;;;;4.40;76.84;98943.09;3575521;81;31794;-84
2021/04/05 06:23:48;;;;;;;23.47;9.90;;;;;;;4.53;76.52;98917.16;3572151;80;98211;-84
2021/04/05 06:29:14;;;;;;;24.80;10.63;;;;;;;4.62;76.00;98935.36;3574755;81;32272;-84
2021/04/05 06:34:38;;;;;;;23.42;10.08;;;;;;;4.65;75.91;98919.61;3567907;81;98558;-85
2021/04/05 06:39:44;;;;;;;18.87;9.10;;;;;;;4.75;75.71;98875.93;3574917;81;32008;-84
2021/04/05 06:45:09;;;;;;;20.35;8.95;;;;;;;4.93;75.45;98837.34;3575411;81;98504;-85
2021/04/05 06:50:43;;;;;;;20.57;9.47;;;;;;;5.07;75.32;98847.00;3577619;81;26011;-81
2021/04/05 06:55:57;;;;;;;24.00;9.77;;;;;;;5.25;74.54;98841.84;3573353;81;98330;-84
2021/04/05 07:01:25;;;;;;;22.67;9.77;;;;;;;5.27;74.03;98839.54;3578279;81;32361;-81
2021/04/05 07:06:55;;;;;;;25.37;9.53;;;;;;;5.35;73.98;98828.09;3574475;81;98140;-82
2021/04/05 07:12:13;;;;;;;28.07;10.37;;;;;;;5.48;73.71;98803.41;3572127;81;31702;-83
2021/04/05 07:17:41;;;;;;;24.33;10.33;;;;;;;5.66;73.07;98786.53;3565275;80;98205;-82
2021/04/05 07:23:01;;;;;;;;;;;;;;;5.78;72.63;98778.78;3575303;81;98518;-84
2021/04/05 07:28:23;;;;;;;24.73;9.67;;;;;;;5.85;71.67;98782.92;3577396;80;26067;-83
2021/04/05 07:33:37;;;;;;;24.77;9.37;;;;;;;5.88;72.25;98772.62;3566542;80;98596;-83
2021/04/05 07:39:07;;;;;;;24.83;9.80;;;;;;;5.97;71.50;98764.06;3576227;80;32414;-82
2021/04/05 07:44:52;;;;;;;24.57;8.80;;;;;;;6.08;71.58;98750.64;3576370;79;98324;-83
2021/04/05 07:50:04;;;;;;;24.10;9.17;;;;;;;6.27;71.34;98728.41;3546054;81;31743;-82
2021/04/05 07:55:06;;;;;;;22.42;9.58;;;;;;;6.43;70.25;98715.15;3574241;81;98385;-84
2021/04/05 08:00:37;;;;;;;19.83;9.23;;;;;;;6.57;69.94;98694.66;3582440;80;26562;-83
2021/04/05 08:06:00;;;;;;;24.80;10.00;;;;;;;6.68;70.14;98675.50;3575900;80;98247;-83
2021/04/05 08:11:30;;;;;;;23.97;9.70;;;;;;;6.80;69.20;98673.14;3578406;81;32252;-81
2021/04/05 08:16:59;;;;;;;25.48;9.90;;;;;;;6.85;69.33;98656.91;3574326;80;97885;-83
2021/04/05 08:22:43;;;;;;;20.83;9.43;;;;;;;6.86;68.20;98659.27;3586517;80;32910;-84
2021/04/05 08:28:14;;;;;;;25.17;9.83;;;;;;;6.96;67.90;98666.66;3578805;81;31711;-83
2021/04/05 08:33:35;;;;;;;27.97;12.17;;;;;;;7.10;68.24;98664.47;3563182;81;98370;-82
2021/04/05 08:39:02;;;;;;;22.93;9.70;;;;;;;7.23;67.78;98652.70;3583294;80;32276;-82
2021/04/05 08:44:26;;;;;;;30.02;12.28;;;;;;;7.31;67.30;98643.87;3565950;81;98747;-83
2021/04/05 08:49:29;;;;;;;24.27;10.37;;;;;;;7.39;66.27;98646.17;3561030;81;31789;-81
2021/04/05 08:54:34;;;;;;;33.63;14.73;;;;;;;7.46;66.13;98635.76;3553236;81;98570;-84
2021/04/05 09:00:07;;;;;;;29.20;12.53;;;;;;;7.49;66.21;98607.03;3580339;81;31807;-85
2021/04/05 09:05:18;;;;;;;21.93;9.23;;;;;;;7.55;66.51;98606.80;3572561;80;98924;-85
2021/04/05 09:10:33;;;;;;;27.00;12.17;;;;;;;7.68;65.96;98610.61;3579354;81;32731;-84
2021/04/05 09:15:49;;;;;;;23.63;10.83;;;;;;;7.79;65.06;98603.70;3575270;80;98516;-86
2021/04/05 09:21:30;;;;;;;27.10;10.43;;;;;;;7.91;64.66;98605.35;3577545;80;32379;-83
2021/04/05 09:27:05;;;;;;;27.10;12.30;;;;;;;8.07;65.11;98596.03;3561821;81;98091;-87
2021/04/05 09:32:38;;;;;;;28.87;11.37;;;;;;;8.31;64.04;98596.45;3581242;81;31827;-83
2021/04/05 09:37:47;;;;;;;22.50;11.43;;;;;;;8.46;63.79;98591.61;3581754;81;31915;-83
2021/04/05 09:43:45;;;;;;;31.00;13.10;;;;;;;8.66;63.22;98573.36;3574407;81;98117;-84
2021/04/05 09:49:28;;;;;;;24.37;11.07;;;;;;;8.84;63.17;98567.86;3578950;81;32887;-82
2021/04/05 09:54:35;;;;;;;29.77;11.43;;;;;;;9.11;62.58;98551.47;3574818;80;98133;-86
2021/04/05 09:59:47;;;;;;;30.10;12.33;;;;;;;9.27;62.29;98540.06;3582230;81;26502;-81
2021/04/05 10:04:48;;;;;;;22.00;10.67;;;;;;;9.38;61.51;98548.92;3576839;80;98529;-83
2021/04/05 10:09:52;;;;;;;21.33;9.70;;;;;;;9.42;61.74;98546.12;3574518;81;32365;-81
2021/04/05 10:14:56;;;;;;;34.43;11.93;;;;;;;9.46;61.73;98532.55;3575609;81;98330;-81
2021/04/05 10:20:00;;;;;;;21.43;11.20;;;;;;;9.48;62.05;98539.75;3574132;81;26512;-81
2021/04/05 10:25:03;;;;;;;27.93;11.43;;;;;;;9.54;63.04;98542.21;3582658;80;98523;-82
2021/04/05 10:30:10;;;;;;;24.87;10.33;;;;;;;9.49;64.09;98556.41;3513315;81;31910;-83
2021/04/05 10:35:15;;;;;;;22.25;10.85;;;;;;;9.24;65.49;98555.99;3499114;82;98540;-88
2021/04/05 10:40:18;;;;;;;19.93;9.80;;;;;;;9.03;67.14;98557.64;3516416;82;31859;-84
2021/04/05 10:45:30;;;;;;;20.87;9.17;;;;;;;8.72;69.00;98562.91;3509254;82;98702;-82
2021/04/05 10:50:39;;;;;;;23.13;9.80;;;;;;;8.50;70.77;98572.55;3519114;82;31868;-82
2021/04/05 10:55:54;;;;;;;23.20;11.60;;;;;;;8.35;72.70;98567.02;3507063;82;98371;-85
2021/04/05 11:00:58;;;;;;;28.90;11.63;;;;;;;8.29;72.84;98568.66;3515147;82;31991;-85
2021/04/05 11:06:03;;;;;;;24.25;12.65;;;;;;;8.13;73.46;98571.13;3489705;82;98514;-86
2021/04/05 11:11:15;;;;;;;31.20;12.97;;;;;;;7.97;74.41;98569.50;3511760;82;31806;-84
2021/04/05 11:16:22;;;;;;;28.53;14.03;;;;;;;7.78;75.21;98572.00;3504800;82;98157;-88
2021/04/05 11:21:28;;;;;;;22.37;11.63;;;;;;;7.68;76.06;98569.54;3523151;81;26345;-83
2021/04/05 11:26:34;;;;;;;24.67;13.03;;;;;;;7.59;77.50;98561.60;3516158;81;98262;-87
2021/04/05 11:31:43;;;;;;;31.03;15.33;;;;;;;7.57;77.26;98560.63;3578978;81;25923;-86
2021/04/05 11:36:48;;;;;;;33.03;15.07;;;;;;;7.52;77.84;98565.16;3573133;80;98456;-85
2021/04/05 11:41:56;;;;;;;22.40;10.67;;;;;;;7.41;78.38;98551.38;3583960;81;31811;-88
2021/04/05 11:46:58;;;;;;;20.40;10.17;;;;;;;7.18;78.68;98555.98;3574442;79;98130;-85
2021/04/05 11:52:23;;;;;;;21.87;10.87;;;;;;;6.96;79.67;98555.91;3585230;80;31793;-84
2021/04/05 11:57:37;;;;;;;20.53;9.43;;;;;;;6.89;80.18;98551.85;3581052;81;32296;-84
2021/04/05 12:02:50;;;;;;;20.23;10.27;;;;;;;6.86;81.77;98547.73;3559597;81;98424;-87
2021/04/05 12:07:56;;;;;;;17.60;9.13;;;;;;;6.75;80.87;98536.07;3563890;81;32378;-89
2021/04/05 12:13:08;;;;;;;17.47;7.97;;;;;;;6.67;81.24;98546.28;3555562;81;98591;-91
2021/04/05 12:18:09;;;;;;;19.57;9.50;;;;;;;6.60;82.62;98525.02;3448353;83;32331;-88
2021/04/05 12:23:14;;;;;;;15.57;7.67;;;;;;;6.50;82.23;98532.06;3445798;83;98795;-89
2021/04/05 12:28:15;;;;;;;14.50;6.77;;;;;;;6.50;82.26;98532.06;3440978;83;31760;-86
2021/04/05 12:33:16;;;;;;;11.47;4.20;;;;;;;6.49;82.76;98538.70;3484421;83;98398;-89
2021/04/05 12:38:17;;;;;;;6.30;2.23;;;;;;;6.32;80.84;98602.36;3467053;83;32302;-90
2021/04/05 12:43:26;;;;;;;9.43;3.67;;;;;;;5.79;79.77;98615.21;3466293;83;97839;-92
2021/04/05 12:48:34;;;;;;;6.40;2.83;;;;;;;5.49;80.17;98619.45;3467252;83;31780;-91
2021/04/05 12:53:37;;;;;;;7.50;1.30;;;;;;;5.12;81.74;98625.20;3463045;83;97820;-93
2021/04/05 12:58:38;;;;;;;4.20;1.77;;;;;;;4.86;81.68;98620.63;3486208;83;32312;-86
2021/04/05 13:03:45;;;;;;;3.62;1.00;;;;;;;4.79;81.53;98632.27;3480373;83;98131;-91
2021/04/05 13:09:09;;;;;;;2.60;1.03;;;;;;;4.70;81.04;98626.37;3472425;83;31880;-95
2021/04/05 13:14:17;;;;;;;8.90;2.47;;;;;;;4.74;81.47;98637.31;3481016;81;98022;-90
2021/04/05 13:19:25;;;;;;;11.53;3.50;;;;;;;4.73;81.28;98634.36;3493288;83;26017;-96
2021/04/05 13:24:33;;;;;;;13.37;5.13;;;;;;;4.78;80.92;98623.10;3482371;80;98455;-95
2021/04/05 13:29:40;;;;;;;8.43;2.47;;;;;;;4.76;80.71;98618.03;3474411;83;31818;-91
2021/04/05 13:34:42;;;;;;;7.37;3.00;;;;;;;4.69;80.46;98609.83;3457162;83;98119;-95
2021/04/05 13:39:45;;;;;;;8.10;2.50;;;;;;;4.62;80.12;98619.33;3478260;83;32426;-91
2021/04/05 13:44:51;;;;;;;6.87;1.90;;;;;;;4.58;80.63;98625.33;3471760;83;98204;-88
2021/04/05 13:50:04;;;;;;;;;;;;;;;4.63;80.11;98627.70;3485864;83;26215;-92
2021/04/05 13:55:14;;;;;;;3.50;1.50;;;;;;;4.65;79.65;98627.33;3479266;82;84556;-88
2021/04/05 14:00:32;;;;;;;4.20;1.60;;;;;;;4.68;79.51;98634.16;3486004;82;32420;-89
2021/04/05 14:05:45;;;;;;;6.53;1.50;;;;;;;4.59;78.69;98629.61;3461620;82;97872;-89
2021/04/05 14:10:57;;;;;;;3.77;1.63;;;;;;;4.59;78.95;98650.05;3473883;83;31830;-87
2021/04/05 14:16:02;;;;;;;3.20;1.23;;;;;;;4.53;78.55;98663.83;3476958;83;97766;-92
2021/04/05 14:21:06;;;;;;;2.00;0.73;;;;;;;4.02;78.01;98741.19;3494335;83;31821;-91
2021/04/05 14:26:11;;;;;;;4.90;1.50;;;;;;;3.58;78.88;98752.57;3477251;82;98037;-91
2021/04/05 14:31:18;;;;;;;4.97;2.57;;;;;;;3.33;79.59;98761.78;3484267;83;31765;-94
2021/04/05 14:36:28;;;;;;;11.90;3.10;;;;;;;3.22;79.80;98748.63;3458876;83;97635;-92
2021/04/05 14:41:52;;;;;;;8.37;2.10;;;;;;;3.20;79.82;98755.02;3484319;83;31831;-90
2021/04/05 14:46:53;;;;;;;5.95;1.55;;;;;;;3.29;79.74;98741.92;3486468;83;98336;-91
2021/04/05 14:52:04;;;;;;;3.67;1.50;;;;;;;3.41;79.57;98740.91;3485494;83;32340;-90
2021/04/05 14:57:09;;;;;;;5.17;1.53;;;;;;;3.45;79.24;98740.38;3479527;83;98243;-90
2021/04/05 15:02:17;;;;;;;3.93;1.43;;;;;;;3.38;79.14;98722.64;3486360;83;31711;-88
2021/04/05 15:07:28;;;;;;;7.70;1.70;;;;;;;3.33;78.00;98718.28;3451982;83;98356;-89
2021/04/05 15:12:42;;;;;;;8.47;2.27;;;;;;;3.40;77.62;98727.11;3480506;83;98167;-90
2021/04/05 15:23:24;;;;;;;9.83;2.63;;;;;;;3.54;76.94;98749.02;3442558;82;97879;-85
2021/04/05 15:28:35;;;;;;;8.40;2.47;;;;;;;3.61;75.52;98738.24;3465280;84;31878;-85
2021/04/05 15:33:41;;;;;;;6.77;2.43;;;;;;;3.68;75.92;98738.31;3458942;83;97890;-85
2021/04/05 15:38:42;;;;;;;7.53;2.13;;;;;;;3.71;75.71;98738.95;3451691;84;31720;-85
2021/04/05 15:43:52;;;;;;;6.40;1.70;;;;;;;3.68;76.05;98741.03;3450697;81;97955;-85
2021/04/05 15:48:58;;;;;;;7.27;1.90;;;;;;;3.67;75.23;98746.27;3431778;83;31723;-86
2021/04/05 15:54:07;;;;;;;5.30;1.53;;;;;;;3.67;75.70;98749.00;3428895;84;97800;-83
2021/04/05 15:59:21;;;;;;;12.63;3.20;;;;;;;3.60;74.37;98750.28;3452198;84;31768;-84
2021/04/05 16:04:44;;;;;;;7.23;2.53;;;;;;;3.58;73.45;98747.92;3438399;84;98167;-84
2021/04/05 16:09:49;;;;;;;5.73;1.93;;;;;;;3.53;74.14;98758.34;3448371;84;31753;-84
2021/04/05 16:14:52;;;;;;;7.87;2.30;;;;;;;3.50;73.79;98765.89;3449533;84;97813;-82
2021/04/05 16:20:08;;;;;;;16.20;4.60;;;;;;;3.42;73.35;98741.91;3449208;84;32301;-84
2021/04/05 16:25:16;;;;;;;6.20;1.93;;;;;;;3.59;73.40;98772.61;3502789;82;98179;-82
2021/04/05 16:30:29;;;;;;;10.63;2.93;;;;;;;3.59;73.65;98778.61;3568466;81;31822;-83
2021/04/05 16:35:23;;;;;;;7.87;2.55;;;;;;;3.51;73.39;98779.69;3571823;81;98363;-83
2021/04/05 16:40:29;;;;;;;21.20;6.53;;;;;;;3.44;73.98;98778.25;3557725;81;31868;-83
2021/04/05 16:45:30;;;;;;;16.05;3.05;;;;;;;3.39;73.70;98792.17;3561007;80;98803;-83
2021/04/05 16:50:37;;;;;;;9.53;2.23;;;;;;;3.30;73.86;98795.72;3570658;81;31797;-84
2021/04/05 16:55:40;;;;;;;11.30;3.70;;;;;;;3.20;73.97;98797.16;3571613;79;98101;-84
2021/04/05 17:00:47;;;;;;;13.93;3.87;;;;;;;3.14;73.81;98790.47;3573580;81;31982;-83
2021/04/05 17:05:55;;;;;;;9.85;2.65;;;;;;;3.14;74.15;98796.47;3562678;79;97866;-83
2021/04/05 17:11:04;;;;;;;19.07;5.00;;;;;;;3.21;74.25;98797.36;3577955;81;32372;-84
2021/04/05 17:16:09;;;;;;;11.73;3.20;;;;;;;3.27;74.29;98805.99;3562140;80;97808;-82
2021/04/05 17:21:14;;;;;;;7.20;2.47;;;;;;;3.27;74.36;98805.99;3552408;81;26102;-84
2021/04/05 17:26:24;;;;;;;11.43;4.00;;;;;;;3.19;74.33;98822.77;3578870;79;97605;-83
2021/04/05 17:31:57;;;;;;;8.50;3.40;;;;;;;3.06;74.77;98813.25;3561678;81;32139;-84
2021/04/05 17:37:10;;;;;;;7.40;3.17;;;;;;;2.98;75.32;98824.38;3579897;80;97692;-84
2021/04/05 17:42:19;;;;;;;6.90;3.03;;;;;;;2.86;75.13;98829.45;3588809;80;32305;-83
2021/04/05 17:47:54;;;;;;;14.77;5.50;;;;;;;2.81;75.60;98831.12;3560363;81;97736;-84
2021/04/05 17:53:22;;;;;;;13.03;4.80;;;;;;;2.82;75.89;98842.75;3572576;80;98286;-84
2021/04/05 17:59:08;;;;;;;11.37;4.70;;;;;;;2.84;76.06;98843.96;3557829;81;31892;-83
2021/04/05 18:04:46;;;;;;;8.53;2.90;;;;;;;2.83;76.25;98855.18;3572062;81;98429;-81
2021/04/05 18:10:20;;;;;;;8.03;2.77;;;;;;;2.72;76.82;98867.80;3502024;81;31823;-81
2021/04/05 18:15:50;;;;;;;11.70;3.97;;;;;;;2.57;76.78;98868.14;3582603;81;98559;-82
2021/04/05 18:21:12;;;;;;;4.77;2.00;;;;;;;2.50;77.04;98869.94;3576120;81;31721;-84
2021/04/05 18:26:44;;;;;;;13.93;5.22;;;;;;;2.51;77.25;98858.73;3570573;80;97991;-83
2021/04/05 18:32:09;;;;;;;8.37;2.90;;;;;;;2.47;77.95;98867.38;3588738;81;31717;-82
2021/04/05 18:37:19;;;;;;;8.40;2.40;;;;;;;2.34;78.08;98878.77;3574037;81;97915;-83
2021/04/05 18:42:20;;;;;;;4.30;1.60;;;;;;;2.26;78.88;98867.58;3595763;80;31735;-84
2021/04/05 18:47:35;;;;;;;5.40;1.60;;;;;;;2.19;79.04;98866.09;3582187;81;32249;-82
2021/04/05 18:52:59;;;;;;;5.03;1.60;;;;;;;2.15;79.02;98872.02;3578183;80;108589;-83
2021/04/05 18:58:02;;;;;;;6.37;1.77;;;;;;;2.12;78.95;98898.50;3579711;81;31786;-84
2021/04/05 19:03:20;;;;;;;6.95;2.05;;;;;;;2.04;78.84;98899.52;3580967;80;98009;-83
2021/04/05 19:08:50;;;;;;;6.23;1.97;;;;;;;1.98;78.67;98905.02;3586326;81;32372;-83
2021/04/05 19:14:05;;;;;;;3.70;1.40;;;;;;;1.89;78.85;98906.59;3579158;80;98156;-83
2021/04/05 19:19:20;;;;;;;4.90;1.73;;;;;;;1.86;79.03;98898.38;3581830;81;32320;-85
2021/04/05 19:25:05;;;;;;;7.50;2.37;;;;;;;1.79;79.06;98909.06;3526547;81;98270;-84
2021/04/05 19:30:29;;;;;;;6.83;2.17;;;;;;;1.77;78.96;98910.00;3545685;82;32207;-83
2021/04/05 19:35:42;;;;;;;11.43;2.40;;;;;;;1.75;79.03;98909.58;3531621;79;98223;-83
2021/04/05 19:40:54;;;;;;;8.67;2.20;;;;;;;1.67;79.13;98911.34;3548245;82;32134;-86
2021/04/05 19:46:26;;;;;;;7.50;2.43;;;;;;;1.65;79.19;98920.39;3547122;81;98080;-83
2021/04/05 19:52:10;;;;;;;7.30;1.90;;;;;;;1.65;79.02;98919.03;3526466;82;32364;-86
2021/04/05 19:57:54;;;;;;;6.63;2.40;;;;;;;1.62;78.46;98921.11;3539943;77;97821;-85
2021/04/05 20:03:17;;;;;;;6.47;2.08;;;;;;;1.57;77.84;98920.59;3533149;82;97853;-91
2021/04/05 20:08:35;;;;;;;9.40;1.83;;;;;;;1.53;77.45;98919.75;3542109;82;32500;-84
2021/04/05 20:14:00;;;;;;;8.65;2.75;;;;;;;1.49;77.11;98929.72;3532416;81;98158;-84
2021/04/05 20:19:12;;;;;;;12.33;4.23;;;;;;;1.43;76.88;98922.41;3542344;82;31761;-82
2021/04/05 20:24:19;;;;;;;11.77;2.97;;;;;;;1.41;76.98;98932.83;3541233;81;98456;-82
2021/04/05 20:29:46;;;;;;;9.23;2.90;;;;;;;1.37;76.95;98942.03;3549762;81;26117;-82
2021/04/05 20:35:18;;;;;;;7.67;2.20;;;;;;;1.36;76.72;98941.78;3539216;82;98006;-83
2021/04/05 20:40:53;;;;;;;9.70;2.37;;;;;;;1.33;76.71;98954.70;3540143;82;32338;-82
2021/04/05 20:46:08;;;;;;;6.43;2.10;;;;;;;1.29;76.70;98953.27;3538831;82;98658;-83
2021/04/05 20:51:50;;;;;;;9.90;2.50;;;;;;;1.29;76.77;98953.27;3545536;81;31753;-83
2021/04/05 20:57:04;;;;;;;8.07;2.37;;;;;;;1.31;76.07;98961.05;3536641;82;98173;-83
2021/04/05 21:02:09;;;;;;;7.23;1.73;;;;;;;1.34;75.79;98973.88;3541976;82;31838;-82
2021/04/05 21:07:15;;;;;;;13.10;2.92;;;;;;;1.37;75.16;98968.55;3537839;81;97870;-84
2021/04/05 21:12:24;;;;;;;7.80;2.10;;;;;;;1.41;75.23;98976.75;3560183;82;31750;-82
2021/04/05 21:17:33;;;;;;;6.57;1.60;;;;;;;1.44;75.16;98972.00;3554807;82;31815;-85
2021/04/05 21:22:37;;;;;;;5.83;1.10;;;;;;;1.47;74.48;98982.92;3560844;80;98388;-82
2021/04/05 21:27:51;;;;;;;4.20;1.17;;;;;;;1.49;74.44;98991.47;3546775;81;31763;-82
2021/04/05 21:32:58;;;;;;;6.83;1.73;;;;;;;1.52;74.21;98983.20;3600794;80;98082;-82
2021/04/05 21:38:01;;;;;;;;;;;;;;;1.52;74.02;99003.54;3603627;80;26878;-82
2021/04/05 21:43:29;;;;;;;6.73;1.60;;;;;;;1.55;73.82;99005.00;3605180;80;84389;-82
2021/04/05 21:48:30;;;;;;;6.40;1.27;;;;;;;1.56;74.12;99014.70;3603408;80;31783;-80
2021/04/05 21:53:34;;;;;;;6.33;1.23;;;;;;;1.61;74.49;99021.77;3599343;80;97795;-81
2021/04/05 21:58:42;;;;;;;9.30;1.33;;;;;;;1.61;74.71;99023.92;3598978;80;31870;-84
2021/04/05 22:03:46;;;;;;;8.23;1.27;;;;;;;1.61;75.11;99029.34;3573408;80;97860;-81
2021/04/05 22:08:50;;;;;;;7.00;1.50;;;;;;;1.64;75.31;99031.34;3608175;80;31997;-82
2021/04/05 22:13:54;;;;;;;9.20;1.73;;;;;;;1.67;75.79;99039.34;3573338;80;98105;-82
2021/04/05 22:18:55;;;;;;;6.27;1.43;;;;;;;1.69;76.18;99039.80;3604045;80;31683;-83
2021/04/05 22:24:05;;;;;;;6.80;1.80;;;;;;;1.72;76.01;99051.28;3601534;80;97882;-82
2021/04/05 22:29:12;;;;;;;4.93;1.40;;;;;;;1.73;76.05;99051.49;3608842;80;31877;-83
2021/04/05 22:34:13;;;;;;;5.78;1.47;;;;;;;1.77;76.10;99042.88;3599728;80;98341;-82
2021/04/05 22:39:17;;;;;;;8.70;2.17;;;;;;;1.79;76.09;99047.37;3603506;80;32199;-82
2021/04/05 22:44:28;;;;;;;6.27;1.30;;;;;;;1.78;75.96;99049.31;3601219;80;98384;-82
2021/04/05 22:49:46;;;;;;;8.13;1.50;;;;;;;1.78;75.90;99050.67;3606931;79;32319;-83
2021/04/05 22:54:55;;;;;;;6.08;1.22;;;;;;;1.77;75.98;99050.45;3603294;80;98240;-82
2021/04/05 23:00:04;;;;;;;9.57;2.73;;;;;;;1.75;76.09;99043.81;3606176;80;31718;-82
2021/04/05 23:05:07;;;;;;;7.87;1.67;;;;;;;1.74;76.66;99046.28;3600957;80;98197;-84
2021/04/05 23:10:22;;;;;;;8.60;1.77;;;;;;;1.73;77.02;99059.62;3610544;80;33004;-82
2021/04/05 23:15:36;;;;;;;6.03;1.20;;;;;;;1.72;77.16;99072.97;3598039;80;98407;-82
2021/04/05 23:20:45;;;;;;;5.13;1.77;;;;;;;1.68;77.73;99074.25;3602200;80;31763;-83
2021/04/05 23:25:48;;;;;;;6.80;1.40;;;;;;;1.73;78.05;99090.26;3596604;80;98186;-81
2021/04/05 23:30:52;;;;;;;5.20;1.13;;;;;;;1.72;78.76;99081.91;3605831;80;31795;-82
2021/04/05 23:35:59;;;;;;;7.20;1.37;;;;;;;1.64;79.90;99088.87;3600480;80;97847;-84
2021/04/05 23:41:07;;;;;;;12.67;3.73;;;;;;;1.54;80.27;99096.94;3596609;80;32105;-84
2021/04/05 23:46:11;;;;;;;8.07;1.90;;;;;;;1.52;80.93;99088.38;3595920;79;98344;-82
2021/04/05 23:51:17;;;;;;;4.17;1.10;;;;;;;1.55;81.02;99086.33;3604653;80;31686;-84
2021/04/05 23:56:26;;;;;;;8.30;1.20;;;;;;;1.56;80.64;99084.39;3600967;80;98033;-82
